sensor_id;sensor_type;location;lat;lon;timestamp;temperature;humidity
67598;DHT22;62026;39.230;9.122;2023-05-07T00:00:52;19.80;56.10
67598;DHT22;62026;39.230;9.122;2023-05-07T00:03:19;19.90;56.10
67598;DHT22;62026;39.230;9.122;2023-05-07T00:05:45;19.80;56.20
67598;DHT22;62026;39.230;9.122;2023-05-07T00:08:12;19.80;56.30
67598;DHT22;62026;39.230;9.122;2023-05-07T00:10:38;19.80;56.50
67598;DHT22;62026;39.230;9.122;2023-05-07T00:13:04;19.80;56.50
67598;DHT22;62026;39.230;9.122;2023-05-07T00:15:30;19.80;56.60
67598;DHT22;62026;39.230;9.122;2023-05-07T00:17:56;19.80;56.60
67598;DHT22;62026;39.230;9.122;2023-05-07T00:20:24;19.70;56.80
67598;DHT22;62026;39.230;9.122;2023-05-07T00:22:50;19.70;56.80
67598;DHT22;62026;39.230;9.122;2023-05-07T00:25:16;19.70;56.90
67598;DHT22;62026;39.230;9.122;2023-05-07T00:27:42;19.70;57.00
67598;DHT22;62026;39.230;9.122;2023-05-07T00:30:08;19.70;57.10
67598;DHT22;62026;39.230;9.122;2023-05-07T00:32:35;19.70;57.00
67598;DHT22;62026;39.230;9.122;2023-05-07T00:35:03;19.70;57.10
67598;DHT22;62026;39.230;9.122;2023-05-07T00:37:29;19.70;57.10
67598;DHT22;62026;39.230;9.122;2023-05-07T00:39:55;19.70;57.20
67598;DHT22;62026;39.230;9.122;2023-05-07T00:42:21;19.70;57.10
67598;DHT22;62026;39.230;9.122;2023-05-07T00:44:48;19.70;57.10
67598;DHT22;62026;39.230;9.122;2023-05-07T00:47:14;19.60;57.20
67598;DHT22;62026;39.230;9.122;2023-05-07T00:49:44;19.60;57.20
67598;DHT22;62026;39.230;9.122;2023-05-07T00:52:16;19.70;57.30
67598;DHT22;62026;39.230;9.122;2023-05-07T00:54:43;19.70;57.30
67598;DHT22;62026;39.230;9.122;2023-05-07T00:57:10;19.60;57.30
67598;DHT22;62026;39.230;9.122;2023-05-07T00:59:37;19.60;57.40
67598;DHT22;62026;39.230;9.122;2023-05-07T01:02:04;19.60;57.40
67598;DHT22;62026;39.230;9.122;2023-05-07T01:04:30;19.60;57.60
67598;DHT22;62026;39.230;9.122;2023-05-07T01:06:56;19.60;57.60
67598;DHT22;62026;39.230;9.122;2023-05-07T01:09:25;19.60;57.70
67598;DHT22;62026;39.230;9.122;2023-05-07T01:11:52;19.60;57.90
67598;DHT22;62026;39.230;9.122;2023-05-07T01:14:19;19.60;57.90
67598;DHT22;62026;39.230;9.122;2023-05-07T01:16:47;19.50;58.20
67598;DHT22;62026;39.230;9.122;2023-05-07T01:19:17;19.50;58.30
67598;DHT22;62026;39.230;9.122;2023-05-07T01:21:48;19.50;58.30
67598;DHT22;62026;39.230;9.122;2023-05-07T01:24:18;19.50;58.30
67598;DHT22;62026;39.230;9.122;2023-05-07T01:26:44;19.50;58.40
67598;DHT22;62026;39.230;9.122;2023-05-07T01:29:13;19.50;58.30
67598;DHT22;62026;39.230;9.122;2023-05-07T01:31:40;19.60;58.40
67598;DHT22;62026;39.230;9.122;2023-05-07T01:34:08;19.50;58.50
67598;DHT22;62026;39.230;9.122;2023-05-07T01:36:38;19.50;58.60
67598;DHT22;62026;39.230;9.122;2023-05-07T01:39:06;19.50;58.90
67598;DHT22;62026;39.230;9.122;2023-05-07T01:41:34;19.40;59.10
67598;DHT22;62026;39.230;9.122;2023-05-07T01:44:01;19.40;59.00
67598;DHT22;62026;39.230;9.122;2023-05-07T01:46:29;19.40;59.00
67598;DHT22;62026;39.230;9.122;2023-05-07T01:48:57;19.30;59.20
67598;DHT22;62026;39.230;9.122;2023-05-07T01:51:23;19.30;59.20
67598;DHT22;62026;39.230;9.122;2023-05-07T01:53:49;19.30;59.20
67598;DHT22;62026;39.230;9.122;2023-05-07T01:56:18;19.30;59.30
67598;DHT22;62026;39.230;9.122;2023-05-07T01:58:46;19.40;59.20
67598;DHT22;62026;39.230;9.122;2023-05-07T02:01:13;19.30;59.40
67598;DHT22;62026;39.230;9.122;2023-05-07T02:03:40;19.30;59.20
67598;DHT22;62026;39.230;9.122;2023-05-07T02:06:13;19.30;59.20
67598;DHT22;62026;39.230;9.122;2023-05-07T02:08:39;19.30;59.20
67598;DHT22;62026;39.230;9.122;2023-05-07T02:11:05;19.30;59.10
67598;DHT22;62026;39.230;9.122;2023-05-07T02:13:33;19.30;58.90
67598;DHT22;62026;39.230;9.122;2023-05-07T02:16:03;19.20;58.70
67598;DHT22;62026;39.230;9.122;2023-05-07T02:18:29;19.20;58.50
67598;DHT22;62026;39.230;9.122;2023-05-07T02:20:56;19.20;58.50
67598;DHT22;62026;39.230;9.122;2023-05-07T02:23:22;19.20;58.40
67598;DHT22;62026;39.230;9.122;2023-05-07T02:25:48;19.20;58.50
67598;DHT22;62026;39.230;9.122;2023-05-07T02:28:14;19.10;58.50
67598;DHT22;62026;39.230;9.122;2023-05-07T02:31:09;19.10;58.60
67598;DHT22;62026;39.230;9.122;2023-05-07T02:33:35;19.10;58.60
67598;DHT22;62026;39.230;9.122;2023-05-07T02:36:11;19.10;58.60
67598;DHT22;62026;39.230;9.122;2023-05-07T02:38:47;19.10;58.80
67598;DHT22;62026;39.230;9.122;2023-05-07T02:41:13;19.10;58.90
67598;DHT22;62026;39.230;9.122;2023-05-07T02:43:39;19.10;58.90
67598;DHT22;62026;39.230;9.122;2023-05-07T02:46:08;19.00;59.10
67598;DHT22;62026;39.230;9.122;2023-05-07T02:48:38;19.10;59.10
67598;DHT22;62026;39.230;9.122;2023-05-07T02:51:04;19.10;59.20
67598;DHT22;62026;39.230;9.122;2023-05-07T02:53:32;19.10;59.10
67598;DHT22;62026;39.230;9.122;2023-05-07T02:56:00;19.10;59.10
67598;DHT22;62026;39.230;9.122;2023-05-07T02:58:26;19.10;59.20
67598;DHT22;62026;39.230;9.122;2023-05-07T03:00:52;19.10;59.10
67598;DHT22;62026;39.230;9.122;2023-05-07T03:03:30;19.00;59.10
67598;DHT22;62026;39.230;9.122;2023-05-07T03:05:57;19.00;59.20
67598;DHT22;62026;39.230;9.122;2023-05-07T03:08:23;19.10;59.10
67598;DHT22;62026;39.230;9.122;2023-05-07T03:10:49;19.10;58.70
67598;DHT22;62026;39.230;9.122;2023-05-07T03:13:16;19.00;58.50
67598;DHT22;62026;39.230;9.122;2023-05-07T03:15:42;19.00;58.40
67598;DHT22;62026;39.230;9.122;2023-05-07T03:18:08;19.00;58.10
67598;DHT22;62026;39.230;9.122;2023-05-07T03:20:35;19.00;58.20
67598;DHT22;62026;39.230;9.122;2023-05-07T03:23:02;19.00;58.10
67598;DHT22;62026;39.230;9.122;2023-05-07T03:25:28;18.90;58.10
67598;DHT22;62026;39.230;9.122;2023-05-07T03:27:56;18.90;58.20
67598;DHT22;62026;39.230;9.122;2023-05-07T03:30:26;18.90;58.20
67598;DHT22;62026;39.230;9.122;2023-05-07T03:32:52;18.90;58.30
67598;DHT22;62026;39.230;9.122;2023-05-07T03:35:18;18.90;58.40
67598;DHT22;62026;39.230;9.122;2023-05-07T03:37:45;18.90;58.50
67598;DHT22;62026;39.230;9.122;2023-05-07T03:40:12;18.80;58.50
67598;DHT22;62026;39.230;9.122;2023-05-07T03:42:46;18.90;58.60
67598;DHT22;62026;39.230;9.122;2023-05-07T03:45:13;18.90;58.40
67598;DHT22;62026;39.230;9.122;2023-05-07T03:47:44;18.80;58.30
67598;DHT22;62026;39.230;9.122;2023-05-07T03:50:12;18.90;58.20
67598;DHT22;62026;39.230;9.122;2023-05-07T03:52:38;18.80;58.00
67598;DHT22;62026;39.230;9.122;2023-05-07T03:55:06;18.90;58.10
67598;DHT22;62026;39.230;9.122;2023-05-07T03:57:34;18.80;58.10
67598;DHT22;62026;39.230;9.122;2023-05-07T04:00:00;18.90;57.90
67598;DHT22;62026;39.230;9.122;2023-05-07T04:02:31;18.80;57.90
67598;DHT22;62026;39.230;9.122;2023-05-07T04:04:58;18.90;57.80
67598;DHT22;62026;39.230;9.122;2023-05-07T04:07:24;18.80;57.80
67598;DHT22;62026;39.230;9.122;2023-05-07T04:09:50;18.80;58.00
67598;DHT22;62026;39.230;9.122;2023-05-07T04:12:16;18.80;58.10
67598;DHT22;62026;39.230;9.122;2023-05-07T04:14:43;18.80;58.10
67598;DHT22;62026;39.230;9.122;2023-05-07T04:17:09;18.70;58.30
67598;DHT22;62026;39.230;9.122;2023-05-07T04:19:37;18.70;58.30
67598;DHT22;62026;39.230;9.122;2023-05-07T04:22:03;18.70;58.00
67598;DHT22;62026;39.230;9.122;2023-05-07T04:24:33;18.70;57.80
67598;DHT22;62026;39.230;9.122;2023-05-07T04:27:00;18.70;57.90
67598;DHT22;62026;39.230;9.122;2023-05-07T04:29:27;18.70;57.80
67598;DHT22;62026;39.230;9.122;2023-05-07T04:31:54;18.70;57.90
67598;DHT22;62026;39.230;9.122;2023-05-07T04:34:22;18.70;57.90
67598;DHT22;62026;39.230;9.122;2023-05-07T04:36:48;18.80;57.90
67598;DHT22;62026;39.230;9.122;2023-05-07T04:39:15;18.80;58.00
67598;DHT22;62026;39.230;9.122;2023-05-07T04:41:43;18.70;58.20
67598;DHT22;62026;39.230;9.122;2023-05-07T04:44:09;18.70;58.30
67598;DHT22;62026;39.230;9.122;2023-05-07T04:46:36;18.70;58.30
67598;DHT22;62026;39.230;9.122;2023-05-07T04:49:02;18.70;58.50
67598;DHT22;62026;39.230;9.122;2023-05-07T04:51:28;18.80;58.60
67598;DHT22;62026;39.230;9.122;2023-05-07T04:53:55;18.80;58.70
67598;DHT22;62026;39.230;9.122;2023-05-07T04:56:21;18.80;58.80
67598;DHT22;62026;39.230;9.122;2023-05-07T04:58:47;18.80;58.90
67598;DHT22;62026;39.230;9.122;2023-05-07T05:01:15;18.80;59.00
67598;DHT22;62026;39.230;9.122;2023-05-07T05:03:41;18.80;59.00
67598;DHT22;62026;39.230;9.122;2023-05-07T05:06:07;18.80;58.90
67598;DHT22;62026;39.230;9.122;2023-05-07T05:08:34;18.80;59.00
67598;DHT22;62026;39.230;9.122;2023-05-07T05:11:02;18.80;58.80
67598;DHT22;62026;39.230;9.122;2023-05-07T05:13:28;18.90;58.70
67598;DHT22;62026;39.230;9.122;2023-05-07T05:15:54;18.90;57.90
67598;DHT22;62026;39.230;9.122;2023-05-07T05:18:22;18.90;57.40
67598;DHT22;62026;39.230;9.122;2023-05-07T05:20:48;19.00;57.00
67598;DHT22;62026;39.230;9.122;2023-05-07T05:23:15;19.00;56.60
67598;DHT22;62026;39.230;9.122;2023-05-07T05:25:41;19.00;55.80
67598;DHT22;62026;39.230;9.122;2023-05-07T05:28:09;19.10;55.30
67598;DHT22;62026;39.230;9.122;2023-05-07T05:30:36;19.10;54.90
67598;DHT22;62026;39.230;9.122;2023-05-07T05:33:02;19.20;55.20
67598;DHT22;62026;39.230;9.122;2023-05-07T05:35:29;19.20;54.60
67598;DHT22;62026;39.230;9.122;2023-05-07T05:37:56;19.20;53.70
67598;DHT22;62026;39.230;9.122;2023-05-07T05:40:22;19.30;54.00
67598;DHT22;62026;39.230;9.122;2023-05-07T05:42:49;19.30;54.10
67598;DHT22;62026;39.230;9.122;2023-05-07T05:45:16;19.40;54.70
67598;DHT22;62026;39.230;9.122;2023-05-07T05:47:44;19.40;55.30
67598;DHT22;62026;39.230;9.122;2023-05-07T05:50:10;19.40;53.70
67598;DHT22;62026;39.230;9.122;2023-05-07T05:52:36;19.40;52.00
67598;DHT22;62026;39.230;9.122;2023-05-07T05:55:03;19.40;52.20
67598;DHT22;62026;39.230;9.122;2023-05-07T05:57:30;19.50;52.90
67598;DHT22;62026;39.230;9.122;2023-05-07T05:59:56;19.60;53.00
67598;DHT22;62026;39.230;9.122;2023-05-07T06:02:23;19.50;53.30
67598;DHT22;62026;39.230;9.122;2023-05-07T06:04:49;19.60;54.10
67598;DHT22;62026;39.230;9.122;2023-05-07T06:07:18;19.60;53.80
67598;DHT22;62026;39.230;9.122;2023-05-07T06:09:44;19.80;53.60
67598;DHT22;62026;39.230;9.122;2023-05-07T06:12:11;19.90;52.60
67598;DHT22;62026;39.230;9.122;2023-05-07T06:14:37;20.00;53.90
67598;DHT22;62026;39.230;9.122;2023-05-07T06:17:03;20.10;53.50
67598;DHT22;62026;39.230;9.122;2023-05-07T06:19:31;20.20;52.50
67598;DHT22;62026;39.230;9.122;2023-05-07T06:21:58;20.30;52.40
67598;DHT22;62026;39.230;9.122;2023-05-07T06:24:28;20.30;51.10
67598;DHT22;62026;39.230;9.122;2023-05-07T06:26:54;20.50;51.00
67598;DHT22;62026;39.230;9.122;2023-05-07T06:29:21;20.60;50.50
67598;DHT22;62026;39.230;9.122;2023-05-07T06:31:47;20.70;50.80
67598;DHT22;62026;39.230;9.122;2023-05-07T06:34:13;20.80;51.10
67598;DHT22;62026;39.230;9.122;2023-05-07T06:36:41;21.00;51.20
67598;DHT22;62026;39.230;9.122;2023-05-07T06:39:15;21.20;48.90
67598;DHT22;62026;39.230;9.122;2023-05-07T06:41:42;21.20;48.80
67598;DHT22;62026;39.230;9.122;2023-05-07T06:44:17;21.30;48.40
67598;DHT22;62026;39.230;9.122;2023-05-07T06:46:46;21.10;48.20
67598;DHT22;62026;39.230;9.122;2023-05-07T06:49:13;21.20;47.80
67598;DHT22;62026;39.230;9.122;2023-05-07T06:51:40;21.40;47.60
67598;DHT22;62026;39.230;9.122;2023-05-07T06:54:06;21.60;47.50
67598;DHT22;62026;39.230;9.122;2023-05-07T06:56:34;21.80;47.40
67598;DHT22;62026;39.230;9.122;2023-05-07T06:59:02;21.90;47.00
67598;DHT22;62026;39.230;9.122;2023-05-07T07:01:33;22.10;46.40
67598;DHT22;62026;39.230;9.122;2023-05-07T07:04:00;22.20;46.50
67598;DHT22;62026;39.230;9.122;2023-05-07T07:06:28;22.10;46.10
67598;DHT22;62026;39.230;9.122;2023-05-07T07:08:58;22.20;45.80
67598;DHT22;62026;39.230;9.122;2023-05-07T07:11:24;22.20;45.90
67598;DHT22;62026;39.230;9.122;2023-05-07T07:13:50;22.20;45.30
67598;DHT22;62026;39.230;9.122;2023-05-07T07:16:16;22.30;45.10
67598;DHT22;62026;39.230;9.122;2023-05-07T07:18:44;22.30;44.60
67598;DHT22;62026;39.230;9.122;2023-05-07T07:21:10;22.40;44.20
67598;DHT22;62026;39.230;9.122;2023-05-07T07:23:36;22.30;44.40
67598;DHT22;62026;39.230;9.122;2023-05-07T07:26:02;22.20;44.70
67598;DHT22;62026;39.230;9.122;2023-05-07T07:28:28;22.20;44.60
67598;DHT22;62026;39.230;9.122;2023-05-07T07:30:54;22.20;45.00
67598;DHT22;62026;39.230;9.122;2023-05-07T07:33:20;22.40;44.40
67598;DHT22;62026;39.230;9.122;2023-05-07T07:35:46;22.50;44.20
67598;DHT22;62026;39.230;9.122;2023-05-07T07:38:13;22.70;44.00
67598;DHT22;62026;39.230;9.122;2023-05-07T07:40:40;22.70;43.90
67598;DHT22;62026;39.230;9.122;2023-05-07T07:43:07;22.80;43.20
67598;DHT22;62026;39.230;9.122;2023-05-07T07:45:34;23.10;43.50
67598;DHT22;62026;39.230;9.122;2023-05-07T07:48:00;22.90;43.00
67598;DHT22;62026;39.230;9.122;2023-05-07T07:50:27;23.00;42.80
67598;DHT22;62026;39.230;9.122;2023-05-07T07:52:53;23.20;42.50
67598;DHT22;62026;39.230;9.122;2023-05-07T07:55:20;23.30;42.80
67598;DHT22;62026;39.230;9.122;2023-05-07T07:57:50;23.00;43.10
67598;DHT22;62026;39.230;9.122;2023-05-07T08:00:17;23.00;43.70
67598;DHT22;62026;39.230;9.122;2023-05-07T08:02:43;23.10;43.40
67598;DHT22;62026;39.230;9.122;2023-05-07T08:05:12;23.10;43.30
67598;DHT22;62026;39.230;9.122;2023-05-07T08:07:38;23.40;43.00
67598;DHT22;62026;39.230;9.122;2023-05-07T08:10:04;23.20;43.20
67598;DHT22;62026;39.230;9.122;2023-05-07T08:12:31;23.10;43.40
67598;DHT22;62026;39.230;9.122;2023-05-07T08:14:58;23.20;43.40
67598;DHT22;62026;39.230;9.122;2023-05-07T08:17:24;23.30;43.20
67598;DHT22;62026;39.230;9.122;2023-05-07T08:19:51;23.50;43.10
67598;DHT22;62026;39.230;9.122;2023-05-07T08:22:17;23.40;42.60
67598;DHT22;62026;39.230;9.122;2023-05-07T08:24:44;23.70;42.00
67598;DHT22;62026;39.230;9.122;2023-05-07T08:27:11;23.70;42.10
67598;DHT22;62026;39.230;9.122;2023-05-07T08:29:39;23.70;41.80
67598;DHT22;62026;39.230;9.122;2023-05-07T08:32:06;24.00;41.30
67598;DHT22;62026;39.230;9.122;2023-05-07T08:34:32;24.00;40.90
67598;DHT22;62026;39.230;9.122;2023-05-07T08:37:01;23.80;41.00
67598;DHT22;62026;39.230;9.122;2023-05-07T08:39:28;23.90;41.40
67598;DHT22;62026;39.230;9.122;2023-05-07T08:41:55;23.90;42.00
67598;DHT22;62026;39.230;9.122;2023-05-07T08:44:26;24.00;42.00
67598;DHT22;62026;39.230;9.122;2023-05-07T08:46:56;24.20;41.30
67598;DHT22;62026;39.230;9.122;2023-05-07T08:49:23;24.10;40.50
67598;DHT22;62026;39.230;9.122;2023-05-07T08:51:51;24.10;40.50
67598;DHT22;62026;39.230;9.122;2023-05-07T08:54:18;24.10;40.70
67598;DHT22;62026;39.230;9.122;2023-05-07T08:56:47;24.20;40.20
67598;DHT22;62026;39.230;9.122;2023-05-07T08:59:14;24.00;40.90
67598;DHT22;62026;39.230;9.122;2023-05-07T09:01:42;24.00;40.70
67598;DHT22;62026;39.230;9.122;2023-05-07T09:04:08;24.30;40.70
67598;DHT22;62026;39.230;9.122;2023-05-07T09:06:35;24.40;40.60
67598;DHT22;62026;39.230;9.122;2023-05-07T09:09:04;24.40;40.70
67598;DHT22;62026;39.230;9.122;2023-05-07T09:11:32;24.30;40.50
67598;DHT22;62026;39.230;9.122;2023-05-07T09:13:59;24.40;40.50
67598;DHT22;62026;39.230;9.122;2023-05-07T09:16:30;24.60;40.20
67598;DHT22;62026;39.230;9.122;2023-05-07T09:18:59;24.90;39.60
67598;DHT22;62026;39.230;9.122;2023-05-07T09:21:26;24.80;39.30
67598;DHT22;62026;39.230;9.122;2023-05-07T09:23:55;24.60;38.80
67598;DHT22;62026;39.230;9.122;2023-05-07T09:26:27;24.60;39.40
67598;DHT22;62026;39.230;9.122;2023-05-07T09:28:54;24.60;39.00
67598;DHT22;62026;39.230;9.122;2023-05-07T09:31:20;24.60;38.60
67598;DHT22;62026;39.230;9.122;2023-05-07T09:33:49;24.90;41.80
67598;DHT22;62026;39.230;9.122;2023-05-07T09:36:15;24.70;44.10
67598;DHT22;62026;39.230;9.122;2023-05-07T09:38:41;24.70;44.30
67598;DHT22;62026;39.230;9.122;2023-05-07T09:53:07;25.10;44.60
67598;DHT22;62026;39.230;9.122;2023-05-07T09:55:36;25.30;44.70
67598;DHT22;62026;39.230;9.122;2023-05-07T09:58:04;25.30;44.30
67598;DHT22;62026;39.230;9.122;2023-05-07T10:00:33;25.10;43.70
67598;DHT22;62026;39.230;9.122;2023-05-07T10:03:08;25.30;43.60
67598;DHT22;62026;39.230;9.122;2023-05-07T10:05:47;25.20;41.60
67598;DHT22;62026;39.230;9.122;2023-05-07T10:08:15;25.20;41.10
67598;DHT22;62026;39.230;9.122;2023-05-07T10:10:44;25.20;41.00
67598;DHT22;62026;39.230;9.122;2023-05-07T10:13:17;25.30;40.60
67598;DHT22;62026;39.230;9.122;2023-05-07T10:15:47;25.00;41.40
67598;DHT22;62026;39.230;9.122;2023-05-07T10:18:15;25.10;41.80
67598;DHT22;62026;39.230;9.122;2023-05-07T10:20:46;25.30;41.60
67598;DHT22;62026;39.230;9.122;2023-05-07T10:23:17;25.20;41.80
67598;DHT22;62026;39.230;9.122;2023-05-07T10:25:49;25.30;43.40
67598;DHT22;62026;39.230;9.122;2023-05-07T10:28:23;25.30;44.40
67598;DHT22;62026;39.230;9.122;2023-05-07T10:31:12;25.30;44.90
67598;DHT22;62026;39.230;9.122;2023-05-07T10:33:51;25.20;45.30
67598;DHT22;62026;39.230;9.122;2023-05-07T10:36:22;25.30;46.00
67598;DHT22;62026;39.230;9.122;2023-05-07T10:38:52;25.20;46.00
67598;DHT22;62026;39.230;9.122;2023-05-07T10:41:18;25.20;45.60
67598;DHT22;62026;39.230;9.122;2023-05-07T10:43:47;25.20;45.40
67598;DHT22;62026;39.230;9.122;2023-05-07T10:46:22;24.90;45.10
67598;DHT22;62026;39.230;9.122;2023-05-07T10:52:14;25.00;47.30
67598;DHT22;62026;39.230;9.122;2023-05-07T10:55:19;25.10;47.20
67598;DHT22;62026;39.230;9.122;2023-05-07T10:58:27;25.30;47.50
67598;DHT22;62026;39.230;9.122;2023-05-07T11:01:09;25.20;46.60
67598;DHT22;62026;39.230;9.122;2023-05-07T11:04:15;25.20;46.20
67598;DHT22;62026;39.230;9.122;2023-05-07T11:17:59;24.10;49.80
67598;DHT22;62026;39.230;9.122;2023-05-07T11:20:47;24.00;50.50
67598;DHT22;62026;39.230;9.122;2023-05-07T11:26:17;24.00;49.40
67598;DHT22;62026;39.230;9.122;2023-05-07T11:28:44;23.90;49.60
67598;DHT22;62026;39.230;9.122;2023-05-07T11:31:11;23.90;49.20
67598;DHT22;62026;39.230;9.122;2023-05-07T11:33:39;23.80;49.30
67598;DHT22;62026;39.230;9.122;2023-05-07T11:36:09;23.70;50.00
67598;DHT22;62026;39.230;9.122;2023-05-07T11:38:42;23.70;50.60
67598;DHT22;62026;39.230;9.122;2023-05-07T11:41:08;23.50;51.30
67598;DHT22;62026;39.230;9.122;2023-05-07T11:43:34;23.50;51.90
67598;DHT22;62026;39.230;9.122;2023-05-07T11:46:11;23.40;52.20
67598;DHT22;62026;39.230;9.122;2023-05-07T11:48:38;23.40;52.50
67598;DHT22;62026;39.230;9.122;2023-05-07T11:51:06;23.50;51.60
67598;DHT22;62026;39.230;9.122;2023-05-07T11:53:41;23.30;52.70
67598;DHT22;62026;39.230;9.122;2023-05-07T11:56:13;23.40;52.30
67598;DHT22;62026;39.230;9.122;2023-05-07T11:58:41;23.30;52.10
67598;DHT22;62026;39.230;9.122;2023-05-07T12:01:09;23.30;52.20
67598;DHT22;62026;39.230;9.122;2023-05-07T12:03:37;23.20;51.30
67598;DHT22;62026;39.230;9.122;2023-05-07T12:06:08;23.20;51.10
67598;DHT22;62026;39.230;9.122;2023-05-07T12:08:39;23.30;51.50
67598;DHT22;62026;39.230;9.122;2023-05-07T12:11:13;23.20;50.70
67598;DHT22;62026;39.230;9.122;2023-05-07T12:13:43;23.20;50.90
67598;DHT22;62026;39.230;9.122;2023-05-07T12:16:10;23.20;50.50
67598;DHT22;62026;39.230;9.122;2023-05-07T12:18:37;23.30;50.10
67598;DHT22;62026;39.230;9.122;2023-05-07T12:21:04;23.40;49.10
67598;DHT22;62026;39.230;9.122;2023-05-07T12:23:33;23.50;47.60
67598;DHT22;62026;39.230;9.122;2023-05-07T12:26:00;23.40;46.00
67598;DHT22;62026;39.230;9.122;2023-05-07T12:28:28;23.30;47.00
67598;DHT22;62026;39.230;9.122;2023-05-07T12:30:54;23.40;47.40
67598;DHT22;62026;39.230;9.122;2023-05-07T12:33:25;23.30;47.20
67598;DHT22;62026;39.230;9.122;2023-05-07T12:35:55;23.30;48.40
67598;DHT22;62026;39.230;9.122;2023-05-07T12:38:22;23.40;49.40
67598;DHT22;62026;39.230;9.122;2023-05-07T12:40:50;23.30;49.80
67598;DHT22;62026;39.230;9.122;2023-05-07T12:43:27;23.40;49.80
67598;DHT22;62026;39.230;9.122;2023-05-07T12:46:03;23.10;49.80
67598;DHT22;62026;39.230;9.122;2023-05-07T12:48:31;23.00;50.30
67598;DHT22;62026;39.230;9.122;2023-05-07T12:50:59;23.00;50.00
67598;DHT22;62026;39.230;9.122;2023-05-07T12:53:27;23.00;49.60
67598;DHT22;62026;39.230;9.122;2023-05-07T12:55:56;23.00;49.60
67598;DHT22;62026;39.230;9.122;2023-05-07T12:58:33;22.90;49.00
67598;DHT22;62026;39.230;9.122;2023-05-07T13:01:04;22.90;50.10
67598;DHT22;62026;39.230;9.122;2023-05-07T13:03:34;22.90;49.70
67598;DHT22;62026;39.230;9.122;2023-05-07T13:06:06;23.00;49.20
67598;DHT22;62026;39.230;9.122;2023-05-07T13:08:39;23.10;49.30
67598;DHT22;62026;39.230;9.122;2023-05-07T13:11:09;23.10;49.30
67598;DHT22;62026;39.230;9.122;2023-05-07T13:13:37;23.10;49.00
67598;DHT22;62026;39.230;9.122;2023-05-07T13:16:07;23.10;49.50
67598;DHT22;62026;39.230;9.122;2023-05-07T13:18:34;23.20;48.10
67598;DHT22;62026;39.230;9.122;2023-05-07T13:21:01;23.30;47.40
67598;DHT22;62026;39.230;9.122;2023-05-07T13:23:28;23.30;47.40
67598;DHT22;62026;39.230;9.122;2023-05-07T13:25:54;23.40;47.10
67598;DHT22;62026;39.230;9.122;2023-05-07T13:28:21;23.40;47.40
67598;DHT22;62026;39.230;9.122;2023-05-07T13:30:48;23.30;46.80
67598;DHT22;62026;39.230;9.122;2023-05-07T13:33:14;23.30;46.00
67598;DHT22;62026;39.230;9.122;2023-05-07T13:35:41;23.40;45.00
67598;DHT22;62026;39.230;9.122;2023-05-07T13:38:07;23.40;45.20
67598;DHT22;62026;39.230;9.122;2023-05-07T13:40:33;23.40;44.90
67598;DHT22;62026;39.230;9.122;2023-05-07T13:43:00;23.50;44.40
67598;DHT22;62026;39.230;9.122;2023-05-07T13:45:30;23.60;43.30
67598;DHT22;62026;39.230;9.122;2023-05-07T13:47:57;23.60;43.20
67598;DHT22;62026;39.230;9.122;2023-05-07T13:50:23;23.60;42.90
67598;DHT22;62026;39.230;9.122;2023-05-07T13:52:50;23.60;42.40
67598;DHT22;62026;39.230;9.122;2023-05-07T13:55:23;23.50;41.80
67598;DHT22;62026;39.230;9.122;2023-05-07T13:57:58;23.60;42.10
67598;DHT22;62026;39.230;9.122;2023-05-07T14:00:26;23.70;42.20
67598;DHT22;62026;39.230;9.122;2023-05-07T14:02:54;23.70;42.00
67598;DHT22;62026;39.230;9.122;2023-05-07T14:05:21;23.70;42.20
67598;DHT22;62026;39.230;9.122;2023-05-07T14:07:57;23.70;41.70
67598;DHT22;62026;39.230;9.122;2023-05-07T14:10:24;23.70;41.60
67598;DHT22;62026;39.230;9.122;2023-05-07T14:12:50;23.70;41.10
67598;DHT22;62026;39.230;9.122;2023-05-07T14:15:16;23.70;41.10
67598;DHT22;62026;39.230;9.122;2023-05-07T14:17:43;23.60;40.40
67598;DHT22;62026;39.230;9.122;2023-05-07T14:20:09;23.60;40.80
67598;DHT22;62026;39.230;9.122;2023-05-07T14:22:36;23.60;41.70
67598;DHT22;62026;39.230;9.122;2023-05-07T14:25:03;23.70;41.80
67598;DHT22;62026;39.230;9.122;2023-05-07T14:27:29;23.70;41.80
67598;DHT22;62026;39.230;9.122;2023-05-07T14:29:55;23.80;41.60
67598;DHT22;62026;39.230;9.122;2023-05-07T14:32:22;23.70;40.90
67598;DHT22;62026;39.230;9.122;2023-05-07T14:34:48;23.70;41.70
67598;DHT22;62026;39.230;9.122;2023-05-07T14:37:15;23.70;41.50
67598;DHT22;62026;39.230;9.122;2023-05-07T14:39:41;23.70;40.70
67598;DHT22;62026;39.230;9.122;2023-05-07T14:42:07;23.70;40.80
67598;DHT22;62026;39.230;9.122;2023-05-07T14:44:37;23.70;41.00
67598;DHT22;62026;39.230;9.122;2023-05-07T14:47:03;23.70;40.50
67598;DHT22;62026;39.230;9.122;2023-05-07T14:49:29;23.70;40.90
67598;DHT22;62026;39.230;9.122;2023-05-07T14:51:57;23.70;41.00
67598;DHT22;62026;39.230;9.122;2023-05-07T14:54:25;23.70;40.90
67598;DHT22;62026;39.230;9.122;2023-05-07T14:56:51;23.60;40.60
67598;DHT22;62026;39.230;9.122;2023-05-07T14:59:19;23.70;40.30
67598;DHT22;62026;39.230;9.122;2023-05-07T15:01:49;23.70;40.40
67598;DHT22;62026;39.230;9.122;2023-05-07T15:04:15;23.80;40.40
67598;DHT22;62026;39.230;9.122;2023-05-07T15:06:42;23.80;39.90
67598;DHT22;62026;39.230;9.122;2023-05-07T15:09:08;23.70;39.90
67598;DHT22;62026;39.230;9.122;2023-05-07T15:11:34;23.70;40.30
67598;DHT22;62026;39.230;9.122;2023-05-07T15:14:02;23.70;40.80
67598;DHT22;62026;39.230;9.122;2023-05-07T15:16:28;23.80;41.30
67598;DHT22;62026;39.230;9.122;2023-05-07T15:18:54;23.70;40.90
67598;DHT22;62026;39.230;9.122;2023-05-07T15:21:21;23.60;41.40
67598;DHT22;62026;39.230;9.122;2023-05-07T15:23:47;23.60;40.90
67598;DHT22;62026;39.230;9.122;2023-05-07T15:26:13;23.60;41.40
67598;DHT22;62026;39.230;9.122;2023-05-07T15:28:39;23.60;41.30
67598;DHT22;62026;39.230;9.122;2023-05-07T15:31:05;23.60;42.00
67598;DHT22;62026;39.230;9.122;2023-05-07T15:33:32;23.60;42.20
67598;DHT22;62026;39.230;9.122;2023-05-07T15:35:58;23.60;42.50
67598;DHT22;62026;39.230;9.122;2023-05-07T15:38:25;23.60;43.00
67598;DHT22;62026;39.230;9.122;2023-05-07T15:40:52;23.60;42.80
67598;DHT22;62026;39.230;9.122;2023-05-07T15:43:18;23.60;43.10
67598;DHT22;62026;39.230;9.122;2023-05-07T15:45:44;23.50;43.90
67598;DHT22;62026;39.230;9.122;2023-05-07T15:48:10;23.40;43.40
67598;DHT22;62026;39.230;9.122;2023-05-07T15:50:37;23.40;44.30
67598;DHT22;62026;39.230;9.122;2023-05-07T15:53:04;23.30;44.50
67598;DHT22;62026;39.230;9.122;2023-05-07T15:55:31;23.30;45.10
67598;DHT22;62026;39.230;9.122;2023-05-07T15:57:57;23.30;44.50
67598;DHT22;62026;39.230;9.122;2023-05-07T16:00:25;23.30;45.20
67598;DHT22;62026;39.230;9.122;2023-05-07T16:02:55;23.30;45.10
67598;DHT22;62026;39.230;9.122;2023-05-07T16:05:21;23.20;44.90